sensor_id;sensor_type;location;lat;lon;timestamp;temperature;humidity
57108;DHT22;42987;52.916;6.542;2023-03-14T00:01:55;10.20;99.90
57108;DHT22;42987;52.916;6.542;2023-03-14T00:04:21;10.30;99.90
57108;DHT22;42987;52.916;6.542;2023-03-14T00:06:46;10.30;99.90
57108;DHT22;42987;52.916;6.542;2023-03-14T00:09:13;10.40;99.90
57108;DHT22;42987;52.916;6.542;2023-03-14T00:11:39;10.50;99.90
57108;DHT22;42987;52.916;6.542;2023-03-14T00:14:05;10.50;99.90
57108;DHT22;42987;52.916;6.542;2023-03-14T00:16:30;10.50;99.90
57108;DHT22;42987;52.916;6.542;2023-03-14T00:18:58;10.60;99.90
57108;DHT22;42987;52.916;6.542;2023-03-14T00:21:25;10.60;99.90
57108;DHT22;42987;52.916;6.542;2023-03-14T00:23:51;10.60;99.90
57108;DHT22;42987;52.916;6.542;2023-03-14T00:26:19;10.70;99.90
57108;DHT22;42987;52.916;6.542;2023-03-14T00:28:45;10.80;99.90
57108;DHT22;42987;52.916;6.542;2023-03-14T00:31:14;10.80;99.90
57108;DHT22;42987;52.916;6.542;2023-03-14T00:33:41;10.80;99.90
57108;DHT22;42987;52.916;6.542;2023-03-14T00:36:13;10.90;99.90
57108;DHT22;42987;52.916;6.542;2023-03-14T00:38:40;10.90;99.90
57108;DHT22;42987;52.916;6.542;2023-03-14T00:41:13;10.90;99.90
57108;DHT22;42987;52.916;6.542;2023-03-14T00:43:39;10.90;99.90
57108;DHT22;42987;52.916;6.542;2023-03-14T00:46:05;10.90;99.90
57108;DHT22;42987;52.916;6.542;2023-03-14T00:48:31;11.00;99.90
57108;DHT22;42987;52.916;6.542;2023-03-14T00:50:57;11.10;99.90
57108;DHT22;42987;52.916;6.542;2023-03-14T00:53:23;11.20;99.90
57108;DHT22;42987;52.916;6.542;2023-03-14T00:55:49;11.20;99.90
57108;DHT22;42987;52.916;6.542;2023-03-14T00:58:16;11.20;99.90
57108;DHT22;42987;52.916;6.542;2023-03-14T01:00:42;11.20;99.90
57108;DHT22;42987;52.916;6.542;2023-03-14T01:03:10;11.10;99.90
57108;DHT22;42987;52.916;6.542;2023-03-14T01:05:36;11.10;99.90
57108;DHT22;42987;52.916;6.542;2023-03-14T01:08:02;11.00;99.90
57108;DHT22;42987;52.916;6.542;2023-03-14T01:10:28;11.00;99.90
57108;DHT22;42987;52.916;6.542;2023-03-14T01:12:57;10.90;99.90
57108;DHT22;42987;52.916;6.542;2023-03-14T01:15:26;10.90;99.90
57108;DHT22;42987;52.916;6.542;2023-03-14T01:17:52;10.90;99.90
57108;DHT22;42987;52.916;6.542;2023-03-14T01:20:18;10.80;99.90
57108;DHT22;42987;52.916;6.542;2023-03-14T01:22:44;10.80;99.90
57108;DHT22;42987;52.916;6.542;2023-03-14T01:25:13;10.80;99.90
57108;DHT22;42987;52.916;6.542;2023-03-14T01:27:39;10.80;99.90
57108;DHT22;42987;52.916;6.542;2023-03-14T01:30:05;10.80;99.90
57108;DHT22;42987;52.916;6.542;2023-03-14T01:32:33;10.80;99.90
57108;DHT22;42987;52.916;6.542;2023-03-14T01:34:59;10.80;99.90
57108;DHT22;42987;52.916;6.542;2023-03-14T01:37:25;10.80;99.90
57108;DHT22;42987;52.916;6.542;2023-03-14T01:39:54;10.80;99.90
57108;DHT22;42987;52.916;6.542;2023-03-14T01:42:25;10.80;99.90
57108;DHT22;42987;52.916;6.542;2023-03-14T01:44:53;10.80;99.90
57108;DHT22;42987;52.916;6.542;2023-03-14T01:47:19;10.80;99.90
57108;DHT22;42987;52.916;6.542;2023-03-14T01:49:47;10.70;99.90
57108;DHT22;42987;52.916;6.542;2023-03-14T01:52:23;10.70;99.90
57108;DHT22;42987;52.916;6.542;2023-03-14T01:55:02;10.70;99.90
57108;DHT22;42987;52.916;6.542;2023-03-14T01:57:36;10.70;99.90
57108;DHT22;42987;52.916;6.542;2023-03-14T02:00:08;10.70;99.90
57108;DHT22;42987;52.916;6.542;2023-03-14T02:02:39;10.70;99.90
57108;DHT22;42987;52.916;6.542;2023-03-14T02:05:05;10.60;99.90
57108;DHT22;42987;52.916;6.542;2023-03-14T02:08:05;10.60;99.90
57108;DHT22;42987;52.916;6.542;2023-03-14T02:10:28;10.60;99.90
57108;DHT22;42987;52.916;6.542;2023-03-14T02:12:56;10.60;99.90
57108;DHT22;42987;52.916;6.542;2023-03-14T02:15:25;10.60;99.90
57108;DHT22;42987;52.916;6.542;2023-03-14T02:17:54;10.50;99.90
57108;DHT22;42987;52.916;6.542;2023-03-14T02:20:26;10.60;99.90
57108;DHT22;42987;52.916;6.542;2023-03-14T02:22:53;10.50;99.90
57108;DHT22;42987;52.916;6.542;2023-03-14T02:27:58;10.50;99.90
57108;DHT22;42987;52.916;6.542;2023-03-14T02:30:27;10.50;99.90
57108;DHT22;42987;52.916;6.542;2023-03-14T02:33:08;10.40;99.90
57108;DHT22;42987;52.916;6.542;2023-03-14T02:35:59;10.40;99.90
57108;DHT22;42987;52.916;6.542;2023-03-14T02:41:02;10.40;99.90
57108;DHT22;42987;52.916;6.542;2023-03-14T02:43:27;10.40;99.90
57108;DHT22;42987;52.916;6.542;2023-03-14T02:45:54;10.30;99.90
57108;DHT22;42987;52.916;6.542;2023-03-14T02:48:26;10.30;99.90
57108;DHT22;42987;52.916;6.542;2023-03-14T02:50:57;10.30;99.90
57108;DHT22;42987;52.916;6.542;2023-03-14T02:53:30;10.30;99.90
57108;DHT22;42987;52.916;6.542;2023-03-14T02:55:57;10.30;99.90
57108;DHT22;42987;52.916;6.542;2023-03-14T02:58:23;10.30;99.90
57108;DHT22;42987;52.916;6.542;2023-03-14T03:00:49;10.30;99.90
57108;DHT22;42987;52.916;6.542;2023-03-14T03:03:15;10.30;99.90
57108;DHT22;42987;52.916;6.542;2023-03-14T03:05:41;10.20;99.90
57108;DHT22;42987;52.916;6.542;2023-03-14T03:08:08;10.20;99.90
57108;DHT22;42987;52.916;6.542;2023-03-14T03:10:34;10.10;99.90
57108;DHT22;42987;52.916;6.542;2023-03-14T03:13:00;10.10;99.90
57108;DHT22;42987;52.916;6.542;2023-03-14T03:15:32;10.10;99.90
57108;DHT22;42987;52.916;6.542;2023-03-14T03:17:58;10.10;99.90
57108;DHT22;42987;52.916;6.542;2023-03-14T03:20:27;10.10;99.90
57108;DHT22;42987;52.916;6.542;2023-03-14T03:22:53;10.00;99.90
57108;DHT22;42987;52.916;6.542;2023-03-14T03:25:22;10.00;99.90
57108;DHT22;42987;52.916;6.542;2023-03-14T03:27:48;10.00;99.90
57108;DHT22;42987;52.916;6.542;2023-03-14T03:30:14;9.90;99.90
57108;DHT22;42987;52.916;6.542;2023-03-14T03:32:40;9.90;99.90
57108;DHT22;42987;52.916;6.542;2023-03-14T03:35:06;9.90;99.90
57108;DHT22;42987;52.916;6.542;2023-03-14T03:37:33;9.90;99.90
57108;DHT22;42987;52.916;6.542;2023-03-14T03:40:03;9.90;99.90
57108;DHT22;42987;52.916;6.542;2023-03-14T03:42:33;9.90;99.90
57108;DHT22;42987;52.916;6.542;2023-03-14T03:45:00;9.80;99.90
57108;DHT22;42987;52.916;6.542;2023-03-14T03:47:30;9.80;99.90
57108;DHT22;42987;52.916;6.542;2023-03-14T03:49:56;9.80;99.90
57108;DHT22;42987;52.916;6.542;2023-03-14T03:52:22;9.80;99.90
57108;DHT22;42987;52.916;6.542;2023-03-14T03:54:47;9.80;99.90
57108;DHT22;42987;52.916;6.542;2023-03-14T03:57:13;9.80;99.90
57108;DHT22;42987;52.916;6.542;2023-03-14T03:59:39;9.70;99.90
57108;DHT22;42987;52.916;6.542;2023-03-14T04:02:07;9.70;99.90
57108;DHT22;42987;52.916;6.542;2023-03-14T04:04:33;9.70;99.90
57108;DHT22;42987;52.916;6.542;2023-03-14T04:06:59;9.70;99.90
57108;DHT22;42987;52.916;6.542;2023-03-14T04:09:27;9.70;99.90
57108;DHT22;42987;52.916;6.542;2023-03-14T04:11:53;9.60;99.90
57108;DHT22;42987;52.916;6.542;2023-03-14T04:14:19;9.60;99.90
57108;DHT22;42987;52.916;6.542;2023-03-14T04:16:44;9.50;99.90
57108;DHT22;42987;52.916;6.542;2023-03-14T04:19:10;9.50;99.90
57108;DHT22;42987;52.916;6.542;2023-03-14T04:21:36;9.50;99.90
57108;DHT22;42987;52.916;6.542;2023-03-14T04:24:05;9.50;99.90
57108;DHT22;42987;52.916;6.542;2023-03-14T04:26:31;9.40;99.90
57108;DHT22;42987;52.916;6.542;2023-03-14T04:28:57;9.40;99.90
57108;DHT22;42987;52.916;6.542;2023-03-14T04:31:23;9.40;99.90
57108;DHT22;42987;52.916;6.542;2023-03-14T04:33:49;9.40;99.90
57108;DHT22;42987;52.916;6.542;2023-03-14T04:36:14;9.40;99.90
57108;DHT22;42987;52.916;6.542;2023-03-14T04:38:40;9.40;99.90
57108;DHT22;42987;52.916;6.542;2023-03-14T04:41:06;9.40;99.90
57108;DHT22;42987;52.916;6.542;2023-03-14T04:43:32;9.40;99.90
57108;DHT22;42987;52.916;6.542;2023-03-14T04:45:58;9.40;99.90
57108;DHT22;42987;52.916;6.542;2023-03-14T04:48:25;9.40;99.90
57108;DHT22;42987;52.916;6.542;2023-03-14T04:50:52;9.40;99.90
57108;DHT22;42987;52.916;6.542;2023-03-14T04:53:18;9.30;99.90
57108;DHT22;42987;52.916;6.542;2023-03-14T04:55:52;9.30;99.90
57108;DHT22;42987;52.916;6.542;2023-03-14T04:58:19;9.30;99.90
57108;DHT22;42987;52.916;6.542;2023-03-14T05:00:45;9.30;99.90
57108;DHT22;42987;52.916;6.542;2023-03-14T05:03:12;9.30;99.90
57108;DHT22;42987;52.916;6.542;2023-03-14T05:05:42;9.30;99.90
57108;DHT22;42987;52.916;6.542;2023-03-14T05:08:11;9.30;99.90
57108;DHT22;42987;52.916;6.542;2023-03-14T05:10:37;9.30;99.90
57108;DHT22;42987;52.916;6.542;2023-03-14T05:13:03;9.30;99.90
57108;DHT22;42987;52.916;6.542;2023-03-14T05:15:29;9.30;99.90
57108;DHT22;42987;52.916;6.542;2023-03-14T05:17:58;9.30;99.90
57108;DHT22;42987;52.916;6.542;2023-03-14T05:20:23;9.30;99.90
57108;DHT22;42987;52.916;6.542;2023-03-14T05:22:49;9.30;99.90
57108;DHT22;42987;52.916;6.542;2023-03-14T05:25:15;9.50;99.90
57108;DHT22;42987;52.916;6.542;2023-03-14T05:27:41;9.40;99.90
57108;DHT22;42987;52.916;6.542;2023-03-14T05:30:08;9.40;99.90
57108;DHT22;42987;52.916;6.542;2023-03-14T05:32:34;9.40;99.90
57108;DHT22;42987;52.916;6.542;2023-03-14T05:34:59;9.40;99.90
57108;DHT22;42987;52.916;6.542;2023-03-14T05:37:26;9.40;99.90
57108;DHT22;42987;52.916;6.542;2023-03-14T05:39:52;9.40;99.90
57108;DHT22;42987;52.916;6.542;2023-03-14T05:42:18;9.40;99.90
57108;DHT22;42987;52.916;6.542;2023-03-14T05:44:44;9.30;99.90
57108;DHT22;42987;52.916;6.542;2023-03-14T05:47:10;9.30;99.90
57108;DHT22;42987;52.916;6.542;2023-03-14T05:49:36;9.30;99.90
57108;DHT22;42987;52.916;6.542;2023-03-14T05:52:02;9.30;99.90
57108;DHT22;42987;52.916;6.542;2023-03-14T05:54:28;9.30;99.90
57108;DHT22;42987;52.916;6.542;2023-03-14T05:56:53;9.30;99.90
57108;DHT22;42987;52.916;6.542;2023-03-14T05:59:19;9.20;99.90
57108;DHT22;42987;52.916;6.542;2023-03-14T06:01:45;9.20;99.90
57108;DHT22;42987;52.916;6.542;2023-03-14T06:04:11;9.20;99.90
57108;DHT22;42987;52.916;6.542;2023-03-14T06:06:36;9.20;99.90
57108;DHT22;42987;52.916;6.542;2023-03-14T06:09:02;9.20;99.90
57108;DHT22;42987;52.916;6.542;2023-03-14T06:11:28;9.20;99.90
57108;DHT22;42987;52.916;6.542;2023-03-14T06:13:56;9.20;99.90
57108;DHT22;42987;52.916;6.542;2023-03-14T06:16:22;9.20;99.90
57108;DHT22;42987;52.916;6.542;2023-03-14T06:18:48;9.20;99.90
57108;DHT22;42987;52.916;6.542;2023-03-14T06:21:15;9.20;99.90
57108;DHT22;42987;52.916;6.542;2023-03-14T06:23:41;9.20;99.90
57108;DHT22;42987;52.916;6.542;2023-03-14T06:26:06;9.20;99.90
57108;DHT22;42987;52.916;6.542;2023-03-14T06:28:32;9.20;99.90
57108;DHT22;42987;52.916;6.542;2023-03-14T06:30:59;9.20;99.90
57108;DHT22;42987;52.916;6.542;2023-03-14T06:33:25;9.10;99.90
57108;DHT22;42987;52.916;6.542;2023-03-14T06:35:51;9.20;99.90
57108;DHT22;42987;52.916;6.542;2023-03-14T06:38:16;9.20;99.90
57108;DHT22;42987;52.916;6.542;2023-03-14T06:40:42;9.20;99.90
57108;DHT22;42987;52.916;6.542;2023-03-14T06:43:08;9.20;99.90
57108;DHT22;42987;52.916;6.542;2023-03-14T06:45:34;9.20;99.90
57108;DHT22;42987;52.916;6.542;2023-03-14T06:48:00;9.20;99.90
57108;DHT22;42987;52.916;6.542;2023-03-14T06:50:25;9.10;99.90
57108;DHT22;42987;52.916;6.542;2023-03-14T06:52:51;9.20;99.90
57108;DHT22;42987;52.916;6.542;2023-03-14T06:55:17;9.10;99.90
57108;DHT22;42987;52.916;6.542;2023-03-14T06:57:43;9.10;99.90
57108;DHT22;42987;52.916;6.542;2023-03-14T07:00:12;9.10;99.90
57108;DHT22;42987;52.916;6.542;2023-03-14T07:02:38;9.10;99.90
57108;DHT22;42987;52.916;6.542;2023-03-14T07:05:05;9.10;99.90
57108;DHT22;42987;52.916;6.542;2023-03-14T07:07:31;9.10;99.90
57108;DHT22;42987;52.916;6.542;2023-03-14T07:09:56;9.10;99.90
57108;DHT22;42987;52.916;6.542;2023-03-14T07:12:22;9.10;99.90
57108;DHT22;42987;52.916;6.542;2023-03-14T07:14:48;9.00;99.90
57108;DHT22;42987;52.916;6.542;2023-03-14T07:17:14;9.00;99.90
57108;DHT22;42987;52.916;6.542;2023-03-14T07:19:42;8.80;99.90
57108;DHT22;42987;52.916;6.542;2023-03-14T07:22:08;8.50;99.90
57108;DHT22;42987;52.916;6.542;2023-03-14T07:24:34;8.10;99.90
57108;DHT22;42987;52.916;6.542;2023-03-14T07:27:00;7.90;99.90
57108;DHT22;42987;52.916;6.542;2023-03-14T07:29:25;7.60;99.90
57108;DHT22;42987;52.916;6.542;2023-03-14T07:31:51;7.40;99.90
57108;DHT22;42987;52.916;6.542;2023-03-14T07:34:17;7.30;99.90
57108;DHT22;42987;52.916;6.542;2023-03-14T07:36:43;7.10;99.90
57108;DHT22;42987;52.916;6.542;2023-03-14T07:39:09;7.00;99.90
57108;DHT22;42987;52.916;6.542;2023-03-14T07:41:35;6.80;99.90
57108;DHT22;42987;52.916;6.542;2023-03-14T07:44:00;6.70;99.90
57108;DHT22;42987;52.916;6.542;2023-03-14T07:46:29;6.50;99.90
57108;DHT22;42987;52.916;6.542;2023-03-14T07:48:55;6.30;99.90
57108;DHT22;42987;52.916;6.542;2023-03-14T07:51:21;6.10;99.90
57108;DHT22;42987;52.916;6.542;2023-03-14T07:53:49;6.00;99.90
57108;DHT22;42987;52.916;6.542;2023-03-14T07:56:15;5.80;99.90
57108;DHT22;42987;52.916;6.542;2023-03-14T07:58:41;5.50;99.90
57108;DHT22;42987;52.916;6.542;2023-03-14T08:01:07;5.40;99.90
57108;DHT22;42987;52.916;6.542;2023-03-14T08:03:36;5.30;99.90
57108;DHT22;42987;52.916;6.542;2023-03-14T08:06:01;5.20;99.90
57108;DHT22;42987;52.916;6.542;2023-03-14T08:08:27;5.10;99.90
57108;DHT22;42987;52.916;6.542;2023-03-14T08:10:53;5.00;99.90
57108;DHT22;42987;52.916;6.542;2023-03-14T08:13:18;5.00;99.90
57108;DHT22;42987;52.916;6.542;2023-03-14T08:15:48;5.00;99.90
57108;DHT22;42987;52.916;6.542;2023-03-14T08:18:14;5.00;99.90
57108;DHT22;42987;52.916;6.542;2023-03-14T08:20:40;5.00;99.90
57108;DHT22;42987;52.916;6.542;2023-03-14T08:23:05;4.90;99.90
57108;DHT22;42987;52.916;6.542;2023-03-14T08:25:31;5.00;99.90
57108;DHT22;42987;52.916;6.542;2023-03-14T08:27:57;5.00;99.90
57108;DHT22;42987;52.916;6.542;2023-03-14T08:30:23;5.10;99.90
57108;DHT22;42987;52.916;6.542;2023-03-14T08:32:52;5.10;99.90
57108;DHT22;42987;52.916;6.542;2023-03-14T08:35:19;5.10;99.90
57108;DHT22;42987;52.916;6.542;2023-03-14T08:37:45;5.10;99.90
57108;DHT22;42987;52.916;6.542;2023-03-14T08:40:11;5.10;99.90
57108;DHT22;42987;52.916;6.542;2023-03-14T08:42:39;5.20;99.90
57108;DHT22;42987;52.916;6.542;2023-03-14T08:45:06;5.20;99.90
57108;DHT22;42987;52.916;6.542;2023-03-14T08:47:32;5.30;99.90
57108;DHT22;42987;52.916;6.542;2023-03-14T08:49:58;5.30;99.90
57108;DHT22;42987;52.916;6.542;2023-03-14T08:52:24;5.30;99.90
57108;DHT22;42987;52.916;6.542;2023-03-14T08:54:52;5.40;99.90
57108;DHT22;42987;52.916;6.542;2023-03-14T08:57:18;5.40;99.90
57108;DHT22;42987;52.916;6.542;2023-03-14T08:59:44;5.40;99.90
57108;DHT22;42987;52.916;6.542;2023-03-14T09:02:13;5.40;99.90
57108;DHT22;42987;52.916;6.542;2023-03-14T09:04:39;5.40;99.90
57108;DHT22;42987;52.916;6.542;2023-03-14T09:07:05;5.50;99.90
57108;DHT22;42987;52.916;6.542;2023-03-14T09:09:30;5.60;99.90
57108;DHT22;42987;52.916;6.542;2023-03-14T09:11:57;5.70;99.90
57108;DHT22;42987;52.916;6.542;2023-03-14T09:14:23;5.70;99.90
57108;DHT22;42987;52.916;6.542;2023-03-14T09:16:49;5.80;99.90
57108;DHT22;42987;52.916;6.542;2023-03-14T09:19:16;5.80;99.90
57108;DHT22;42987;52.916;6.542;2023-03-14T09:21:41;5.90;99.90
57108;DHT22;42987;52.916;6.542;2023-03-14T09:24:07;5.90;99.90
57108;DHT22;42987;52.916;6.542;2023-03-14T09:26:33;5.90;99.90
57108;DHT22;42987;52.916;6.542;2023-03-14T09:28:59;6.10;99.90
57108;DHT22;42987;52.916;6.542;2023-03-14T09:31:28;6.10;99.90
57108;DHT22;42987;52.916;6.542;2023-03-14T09:33:55;6.10;99.90
57108;DHT22;42987;52.916;6.542;2023-03-14T09:36:21;6.00;99.90
57108;DHT22;42987;52.916;6.542;2023-03-14T09:38:47;6.00;99.90
57108;DHT22;42987;52.916;6.542;2023-03-14T09:41:26;6.10;99.90
57108;DHT22;42987;52.916;6.542;2023-03-14T09:44:00;6.20;99.90
57108;DHT22;42987;52.916;6.542;2023-03-14T09:46:28;6.20;99.90
57108;DHT22;42987;52.916;6.542;2023-03-14T09:48:54;6.40;99.90
57108;DHT22;42987;52.916;6.542;2023-03-14T09:51:21;6.50;99.90
57108;DHT22;42987;52.916;6.542;2023-03-14T09:53:50;6.50;99.90
57108;DHT22;42987;52.916;6.542;2023-03-14T09:56:21;6.50;99.90
57108;DHT22;42987;52.916;6.542;2023-03-14T09:59:03;6.60;99.90
57108;DHT22;42987;52.916;6.542;2023-03-14T10:01:33;6.60;99.90
57108;DHT22;42987;52.916;6.542;2023-03-14T10:04:09;6.50;99.90
57108;DHT22;42987;52.916;6.542;2023-03-14T10:06:36;6.50;99.90
57108;DHT22;42987;52.916;6.542;2023-03-14T10:09:02;6.50;99.90
57108;DHT22;42987;52.916;6.542;2023-03-14T10:11:28;6.50;99.90
57108;DHT22;42987;52.916;6.542;2023-03-14T10:16:34;6.50;99.90
57108;DHT22;42987;52.916;6.542;2023-03-14T10:19:13;6.50;99.90
57108;DHT22;42987;52.916;6.542;2023-03-14T10:21:44;6.60;99.90
57108;DHT22;42987;52.916;6.542;2023-03-14T10:24:22;6.60;99.90
57108;DHT22;42987;52.916;6.542;2023-03-14T10:27:03;6.60;99.90
57108;DHT22;42987;52.916;6.542;2023-03-14T10:29:31;6.60;99.90
57108;DHT22;42987;52.916;6.542;2023-03-14T10:34:34;6.60;99.90
57108;DHT22;42987;52.916;6.542;2023-03-14T10:37:23;6.60;99.90
57108;DHT22;42987;52.916;6.542;2023-03-14T10:39:53;6.60;99.90
57108;DHT22;42987;52.916;6.542;2023-03-14T10:42:24;6.60;99.90
57108;DHT22;42987;52.916;6.542;2023-03-14T10:44:56;6.60;99.90
57108;DHT22;42987;52.916;6.542;2023-03-14T10:47:26;6.60;99.90
57108;DHT22;42987;52.916;6.542;2023-03-14T10:49:56;6.60;99.90
57108;DHT22;42987;52.916;6.542;2023-03-14T10:52:25;6.70;99.90
57108;DHT22;42987;52.916;6.542;2023-03-14T10:55:00;6.80;99.90
57108;DHT22;42987;52.916;6.542;2023-03-14T10:57:27;7.00;99.90
57108;DHT22;42987;52.916;6.542;2023-03-14T10:59:55;7.00;97.30
57108;DHT22;42987;52.916;6.542;2023-03-14T11:05:22;7.00;96.60
57108;DHT22;42987;52.916;6.542;2023-03-14T11:07:53;6.90;95.70
57108;DHT22;42987;52.916;6.542;2023-03-14T11:10:38;7.00;97.50
57108;DHT22;42987;52.916;6.542;2023-03-14T11:18:30;7.30;96.60
57108;DHT22;42987;52.916;6.542;2023-03-14T11:27:19;7.10;92.30
57108;DHT22;42987;52.916;6.542;2023-03-14T11:30:18;7.10;90.50
57108;DHT22;42987;52.916;6.542;2023-03-14T11:32:46;7.10;88.10
57108;DHT22;42987;52.916;6.542;2023-03-14T11:35:28;7.20;88.00
57108;DHT22;42987;52.916;6.542;2023-03-14T11:40:37;7.50;84.80
57108;DHT22;42987;52.916;6.542;2023-03-14T11:43:11;7.60;83.80
57108;DHT22;42987;52.916;6.542;2023-03-14T11:45:40;7.70;83.70
57108;DHT22;42987;52.916;6.542;2023-03-14T11:48:10;7.50;85.60
57108;DHT22;42987;52.916;6.542;2023-03-14T11:50:41;7.40;88.00
57108;DHT22;42987;52.916;6.542;2023-03-14T11:53:13;7.30;83.80
57108;DHT22;42987;52.916;6.542;2023-03-14T11:55:42;7.30;84.80
57108;DHT22;42987;52.916;6.542;2023-03-14T12:00:47;7.40;85.00
57108;DHT22;42987;52.916;6.542;2023-03-14T12:04:02;7.60;80.10
57108;DHT22;42987;52.916;6.542;2023-03-14T12:06:28;7.70;78.20
57108;DHT22;42987;52.916;6.542;2023-03-14T12:09:00;7.80;73.50
57108;DHT22;42987;52.916;6.542;2023-03-14T12:11:44;7.80;73.50
57108;DHT22;42987;52.916;6.542;2023-03-14T12:14:26;7.80;73.80
57108;DHT22;42987;52.916;6.542;2023-03-14T12:17:05;7.80;76.00
57108;DHT22;42987;52.916;6.542;2023-03-14T12:19:40;7.70;70.60
57108;DHT22;42987;52.916;6.542;2023-03-14T12:22:25;7.60;70.20
57108;DHT22;42987;52.916;6.542;2023-03-14T12:24:59;7.50;71.50
57108;DHT22;42987;52.916;6.542;2023-03-14T12:28:12;7.60;72.20
57108;DHT22;42987;52.916;6.542;2023-03-14T12:30:42;7.80;74.80
57108;DHT22;42987;52.916;6.542;2023-03-14T12:43:34;7.60;71.10
57108;DHT22;42987;52.916;6.542;2023-03-14T12:46:26;7.50;74.50
57108;DHT22;42987;52.916;6.542;2023-03-14T12:51:37;7.50;74.50
57108;DHT22;42987;52.916;6.542;2023-03-14T13:02:36;7.70;71.80
57108;DHT22;42987;52.916;6.542;2023-03-14T13:04:52;7.90;72.10
57108;DHT22;42987;52.916;6.542;2023-03-14T13:08:26;7.90;72.90
57108;DHT22;42987;52.916;6.542;2023-03-14T13:10:45;7.90;72.80
57108;DHT22;42987;52.916;6.542;2023-03-14T13:13:24;8.00;70.10
57108;DHT22;42987;52.916;6.542;2023-03-14T13:16:00;7.90;73.90
57108;DHT22;42987;52.916;6.542;2023-03-14T13:18:47;8.10;71.70
57108;DHT22;42987;52.916;6.542;2023-03-14T13:21:29;8.30;69.20
57108;DHT22;42987;52.916;6.542;2023-03-14T13:24:01;8.40;69.10
57108;DHT22;42987;52.916;6.542;2023-03-14T13:26:43;8.30;71.50
57108;DHT22;42987;52.916;6.542;2023-03-14T13:29:24;8.20;72.00
57108;DHT22;42987;52.916;6.542;2023-03-14T13:31:55;7.90;71.40
57108;DHT22;42987;52.916;6.542;2023-03-14T13:34:30;7.80;67.70
57108;DHT22;42987;52.916;6.542;2023-03-14T13:36:56;7.70;68.00
57108;DHT22;42987;52.916;6.542;2023-03-14T13:39:24;7.70;67.50
57108;DHT22;42987;52.916;6.542;2023-03-14T13:41:57;7.80;66.20
57108;DHT22;42987;52.916;6.542;2023-03-14T13:44:27;7.90;67.40
57108;DHT22;42987;52.916;6.542;2023-03-14T13:47:03;8.00;68.30
57108;DHT22;42987;52.916;6.542;2023-03-14T13:49:31;8.10;67.00
57108;DHT22;42987;52.916;6.542;2023-03-14T13:51:59;8.10;65.10
57108;DHT22;42987;52.916;6.542;2023-03-14T13:54:26;8.00;66.80
57108;DHT22;42987;52.916;6.542;2023-03-14T13:57:00;7.90;67.60
57108;DHT22;42987;52.916;6.542;2023-03-14T13:59:31;7.90;67.00
57108;DHT22;42987;52.916;6.542;2023-03-14T14:02:04;7.80;68.90
57108;DHT22;42987;52.916;6.542;2023-03-14T14:04:36;8.00;68.40
57108;DHT22;42987;52.916;6.542;2023-03-14T14:07:07;8.00;66.20
57108;DHT22;42987;52.916;6.542;2023-03-14T14:09:42;8.10;67.50
57108;DHT22;42987;52.916;6.542;2023-03-14T14:14:52;8.40;69.60
57108;DHT22;42987;52.916;6.542;2023-03-14T14:17:22;8.40;68.40
57108;DHT22;42987;52.916;6.542;2023-03-14T14:19:52;8.40;66.60
57108;DHT22;42987;52.916;6.542;2023-03-14T14:22:19;8.40;63.50
57108;DHT22;42987;52.916;6.542;2023-03-14T14:24:49;8.40;65.00
57108;DHT22;42987;52.916;6.542;2023-03-14T14:27:28;8.30;64.50
57108;DHT22;42987;52.916;6.542;2023-03-14T14:29:59;8.00;65.30
57108;DHT22;42987;52.916;6.542;2023-03-14T14:32:26;7.80;67.60
57108;DHT22;42987;52.916;6.542;2023-03-14T14:34:57;7.80;68.60
57108;DHT22;42987;52.916;6.542;2023-03-14T14:37:31;7.70;68.60
57108;DHT22;42987;52.916;6.542;2023-03-14T14:40:09;7.70;69.40
57108;DHT22;42987;52.916;6.542;2023-03-14T14:42:40;7.80;68.20
57108;DHT22;42987;52.916;6.542;2023-03-14T14:45:16;7.80;69.50
57108;DHT22;42987;52.916;6.542;2023-03-14T14:48:11;7.90;70.30
57108;DHT22;42987;52.916;6.542;2023-03-14T14:53:38;8.10;69.30
57108;DHT22;42987;52.916;6.542;2023-03-14T14:56:16;8.00;68.60
57108;DHT22;42987;52.916;6.542;2023-03-14T14:58:48;7.90;69.70
57108;DHT22;42987;52.916;6.542;2023-03-14T15:01:23;7.70;70.90
57108;DHT22;42987;52.916;6.542;2023-03-14T15:03:51;7.60;72.20
57108;DHT22;42987;52.916;6.542;2023-03-14T15:06:18;7.60;74.10
57108;DHT22;42987;52.916;6.542;2023-03-14T15:08:47;7.60;74.10
57108;DHT22;42987;52.916;6.542;2023-03-14T15:11:21;7.60;72.30
57108;DHT22;42987;52.916;6.542;2023-03-14T15:13:51;7.60;69.60
57108;DHT22;42987;52.916;6.542;2023-03-14T15:16:18;7.60;68.60
57108;DHT22;42987;52.916;6.542;2023-03-14T15:18:47;7.60;69.40
57108;DHT22;42987;52.916;6.542;2023-03-14T15:21:13;7.70;71.80
57108;DHT22;42987;52.916;6.542;2023-03-14T15:23:39;7.70;69.10
57108;DHT22;42987;52.916;6.542;2023-03-14T15:26:12;7.70;69.60
57108;DHT22;42987;52.916;6.542;2023-03-14T15:28:38;7.80;69.00
57108;DHT22;42987;52.916;6.542;2023-03-14T15:31:04;7.80;66.60
57108;DHT22;42987;52.916;6.542;2023-03-14T15:33:30;7.70;66.40
57108;DHT22;42987;52.916;6.542;2023-03-14T15:35:56;7.60;66.50
57108;DHT22;42987;52.916;6.542;2023-03-14T15:38:22;7.40;66.40
57108;DHT22;42987;52.916;6.542;2023-03-14T15:40:49;7.20;68.00
57108;DHT22;42987;52.916;6.542;2023-03-14T15:43:16;7.10;70.30
57108;DHT22;42987;52.916;6.542;2023-03-14T15:45:42;7.00;71.60
57108;DHT22;42987;52.916;6.542;2023-03-14T15:48:19;7.00;73.60
57108;DHT22;42987;52.916;6.542;2023-03-14T15:50:46;7.00;73.10
57108;DHT22;42987;52.916;6.542;2023-03-14T15:53:12;7.00;74.00
57108;DHT22;42987;52.916;6.542;2023-03-14T15:55:38;6.90;73.90
57108;DHT22;42987;52.916;6.542;2023-03-14T15:58:04;6.90;74.90
57108;DHT22;42987;52.916;6.542;2023-03-14T16:00:33;6.80;75.60
57108;DHT22;42987;52.916;6.542;2023-03-14T16:03:00;6.70;75.50
57108;DHT22;42987;52.916;6.542;2023-03-14T16:05:25;6.60;74.70
57108;DHT22;42987;52.916;6.542;2023-03-14T16:07:51;6.50;74.80
57108;DHT22;42987;52.916;6.542;2023-03-14T16:10:17;6.50;76.50
57108;DHT22;42987;52.916;6.542;2023-03-14T16:12:43;6.50;77.70
57108;DHT22;42987;52.916;6.542;2023-03-14T16:15:09;6.50;78.30
57108;DHT22;42987;52.916;6.542;2023-03-14T16:17:35;6.40;78.80
57108;DHT22;42987;52.916;6.542;2023-03-14T16:20:07;6.40;80.10
57108;DHT22;42987;52.916;6.542;2023-03-14T16:22:34;6.50;80.90
57108;DHT22;42987;52.916;6.542;2023-03-14T16:25:04;6.40;81.70
57108;DHT22;42987;52.916;6.542;2023-03-14T16:27:30;6.40;84.50
57108;DHT22;42987;52.916;6.542;2023-03-14T16:29:59;6.20;90.20
57108;DHT22;42987;52.916;6.542;2023-03-14T16:32:25;5.90;92.70
57108;DHT22;42987;52.916;6.542;2023-03-14T16:34:51;5.60;96.60
57108;DHT22;42987;52.916;6.542;2023-03-14T16:37:17;5.20;99.30
57108;DHT22;42987;52.916;6.542;2023-03-14T16:39:43;5.00;99.90
57108;DHT22;42987;52.916;6.542;2023-03-14T16:42:08;4.80;99.90
57108;DHT22;42987;52.916;6.542;2023-03-14T16:44:34;4.70;99.90
57108;DHT22;42987;52.916;6.542;2023-03-14T16:47:00;4.70;99.90
57108;DHT22;42987;52.916;6.542;2023-03-14T16:49:26;4.70;99.90
57108;DHT22;42987;52.916;6.542;2023-03-14T16:51:52;4.60;99.90